createdAt,value
2018-05-23T00:01:04.587Z,8.43
2018-05-23T00:03:32.139Z,8.50
2018-05-23T00:05:59.681Z,7.90
2018-05-23T00:08:27.273Z,8.67
2018-05-23T00:10:54.817Z,8.43
2018-05-23T00:13:22.389Z,8.37
2018-05-23T00:15:50.061Z,8.60
2018-05-23T00:18:17.609Z,8.20
2018-05-23T00:20:45.152Z,8.33
2018-05-23T00:23:12.865Z,8.80
2018-05-23T00:25:40.415Z,8.40
2018-05-23T00:28:07.952Z,8.67
2018-05-23T00:30:35.544Z,8.53
2018-05-23T00:33:03.096Z,8.27
2018-05-23T00:35:30.680Z,8.77
2018-05-23T00:37:58.305Z,8.80
2018-05-23T00:40:25.866Z,9.17
2018-05-23T00:42:53.415Z,8.67
2018-05-23T00:45:21.170Z,8.40
2018-05-23T00:47:48.724Z,9.07
2018-05-23T00:50:16.285Z,9.83
2018-05-23T00:52:43.904Z,9.00
2018-05-23T00:55:23.065Z,9.67
2018-05-23T00:57:50.796Z,9.30
2018-05-23T01:00:18.342Z,8.13
2018-05-23T01:02:45.910Z,7.63
2018-05-23T01:05:13.631Z,7.63
2018-05-23T01:07:41.181Z,8.30
2018-05-23T01:10:08.749Z,8.23
2018-05-23T01:12:37.364Z,8.23
2018-05-23T01:15:04.939Z,9.43
2018-05-23T01:17:32.473Z,9.10
2018-05-23T01:20:00.079Z,8.83
2018-05-23T01:22:27.667Z,8.67
2018-05-23T01:24:55.217Z,9.00
2018-05-23T01:27:22.946Z,8.07
2018-05-23T01:29:50.493Z,8.43
2018-05-23T01:32:18.049Z,8.13
2018-05-23T01:34:45.789Z,8.80
2018-05-23T01:37:13.324Z,9.47
2018-05-23T01:39:40.856Z,9.57
2018-05-23T01:42:08.459Z,9.47
2018-05-23T01:44:36.015Z,10.33
2018-05-23T01:47:03.577Z,10.27
2018-05-23T01:49:31.161Z,10.73
2018-05-23T01:51:58.712Z,10.90
2018-05-23T01:54:26.263Z,10.00
2018-05-23T01:56:53.867Z,9.90
2018-05-23T01:59:21.420Z,10.87
2018-05-23T02:01:48.991Z,11.77
2018-05-23T02:04:16.755Z,12.20
2018-05-23T02:06:44.328Z,12.13
2018-05-23T02:09:11.875Z,11.37
2018-05-23T02:11:39.461Z,11.20
2018-05-23T02:14:07.012Z,13.17
2018-05-23T02:16:34.564Z,12.47
2018-05-23T02:19:02.329Z,12.47
2018-05-23T02:21:29.868Z,12.83
2018-05-23T02:23:57.418Z,13.50
2018-05-23T02:26:25.015Z,13.77
2018-05-23T02:28:52.571Z,13.00
2018-05-23T02:31:20.142Z,12.47
2018-05-23T02:33:47.836Z,12.53
2018-05-23T02:36:15.395Z,13.33
2018-05-23T02:38:42.970Z,11.93
2018-05-23T02:41:10.569Z,12.23
2018-05-23T02:43:38.165Z,12.67
2018-05-23T02:46:05.757Z,12.23
2018-05-23T02:48:33.673Z,12.90
2018-05-23T02:51:01.254Z,12.53
2018-05-23T02:53:28.808Z,13.07
2018-05-23T02:55:56.431Z,12.43
2018-05-23T02:58:23.977Z,12.93
2018-05-23T03:00:51.531Z,13.30
2018-05-23T03:03:19.109Z,14.43
2018-05-23T03:05:46.656Z,14.40
2018-05-23T03:08:14.203Z,14.43
2018-05-23T03:10:42.545Z,14.03
2018-05-23T03:13:10.112Z,13.27
2018-05-23T03:15:37.664Z,12.80
2018-05-23T03:18:05.267Z,13.23
2018-05-23T03:20:32.814Z,12.37
2018-05-23T03:23:00.354Z,13.67
2018-05-23T03:25:28.259Z,12.53
2018-05-23T03:27:55.839Z,12.80
2018-05-23T03:30:23.408Z,12.17
2018-05-23T03:32:50.999Z,10.73
2018-05-23T03:35:18.559Z,11.33
2018-05-23T03:37:46.125Z,11.47
2018-05-23T03:40:13.709Z,10.50
2018-05-23T03:42:41.256Z,11.80
2018-05-23T03:45:08.817Z,11.10
2018-05-23T03:47:36.517Z,11.83
2018-05-23T03:50:04.970Z,11.67
2018-05-23T03:52:33.300Z,11.97
2018-05-23T03:55:01.035Z,12.03
2018-05-23T03:57:28.576Z,12.53
2018-05-23T04:00:07.801Z,12.03
2018-05-23T04:02:46.968Z,12.03
2018-05-23T04:08:22.460Z,12.73
2018-05-23T04:10:50.041Z,13.27
2018-05-23T04:13:17.594Z,13.93
2018-05-23T04:15:45.153Z,13.27
2018-05-23T04:18:12.752Z,13.53
2018-05-23T04:20:40.299Z,13.10
2018-05-23T04:23:07.851Z,12.77
2018-05-23T04:25:35.553Z,13.03
2018-05-23T04:28:03.096Z,13.10
2018-05-23T04:30:30.748Z,12.73
2018-05-23T04:32:58.319Z,13.35
2018-05-23T04:35:25.869Z,13.13
2018-05-23T04:37:53.437Z,13.62
2018-05-23T04:40:21.037Z,13.60
2018-05-23T04:42:48.597Z,13.15
2018-05-23T04:45:16.165Z,13.48
2018-05-23T04:47:43.752Z,13.32
2018-05-23T04:50:11.402Z,13.88
2018-05-23T04:52:38.951Z,14.00
2018-05-23T04:55:06.689Z,12.57
2018-05-23T04:57:34.251Z,12.80
2018-05-23T05:00:01.809Z,13.75
2018-05-23T05:02:29.400Z,11.95
2018-05-23T05:04:56.997Z,12.90
2018-05-23T05:07:24.561Z,12.57
2018-05-23T05:09:52.141Z,13.70
2018-05-23T05:12:19.750Z,13.55
2018-05-23T05:14:47.292Z,16.33
2018-05-23T05:17:14.877Z,14.15
2018-05-23T05:19:42.432Z,15.10
2018-05-23T05:22:09.978Z,14.33
2018-05-23T05:24:37.654Z,14.93
2018-05-23T05:27:05.212Z,14.60
2018-05-23T05:29:32.753Z,15.67
2018-05-23T05:32:00.494Z,15.90
2018-05-23T05:34:29.040Z,15.77
2018-05-23T05:36:56.613Z,15.63
2018-05-23T05:39:24.418Z,16.40
2018-05-23T05:41:51.968Z,16.93
2018-05-23T05:44:19.523Z,16.37
2018-05-23T05:46:47.131Z,15.80
2018-05-23T05:49:14.696Z,15.50
2018-05-23T05:51:42.269Z,15.27
2018-05-23T05:54:10.152Z,15.53
2018-05-23T05:56:37.695Z,16.63
2018-05-23T05:59:05.258Z,16.23
2018-05-23T06:01:33.168Z,16.07
2018-05-23T06:04:00.719Z,16.50
2018-05-23T06:06:28.266Z,15.57
2018-05-23T06:08:55.841Z,15.23
2018-05-23T06:11:23.425Z,15.57
2018-05-23T06:13:50.971Z,15.93
2018-05-23T06:16:18.554Z,15.07
2018-05-23T06:18:46.114Z,15.13
2018-05-23T06:21:13.675Z,15.67
2018-05-23T06:23:41.261Z,15.23
2018-05-23T06:26:08.840Z,15.60
2018-05-23T06:28:36.398Z,15.67
2018-05-23T06:31:04.061Z,15.43
2018-05-23T06:33:31.629Z,15.33
2018-05-23T06:35:59.193Z,16.33
2018-05-23T06:38:26.789Z,14.30
2018-05-23T06:40:54.361Z,16.67
2018-05-23T06:43:21.926Z,15.13
2018-05-23T06:45:49.520Z,15.47
2018-05-23T06:48:17.080Z,17.27
2018-05-23T06:50:44.641Z,15.57
2018-05-23T06:53:12.386Z,16.73
2018-05-23T06:55:39.924Z,16.07
2018-05-23T06:58:07.482Z,14.83
2018-05-23T07:00:35.064Z,15.77
2018-05-23T07:03:02.620Z,17.13
2018-05-23T07:05:30.187Z,15.67
2018-05-23T07:07:57.773Z,15.33
2018-05-23T07:10:25.333Z,15.70
2018-05-23T07:12:52.879Z,15.17
2018-05-23T07:15:20.457Z,15.00
2018-05-23T07:17:48.044Z,15.77
2018-05-23T07:20:15.610Z,14.63
2018-05-23T07:22:43.350Z,14.93
2018-05-23T07:25:10.923Z,15.87
2018-05-23T07:27:38.475Z,15.83
2018-05-23T07:30:06.335Z,15.10
2018-05-23T07:32:33.881Z,15.50
2018-05-23T07:35:01.430Z,14.47
2018-05-23T07:37:29.028Z,14.43
2018-05-23T07:39:56.592Z,13.77
2018-05-23T07:42:24.133Z,13.87
2018-05-23T07:44:51.723Z,16.00
2018-05-23T07:47:19.276Z,14.07
2018-05-23T07:49:46.827Z,13.17
2018-05-23T07:52:14.411Z,13.77
2018-05-23T07:54:41.961Z,13.87
2018-05-23T07:57:09.552Z,14.63
2018-05-23T07:59:37.117Z,12.73
2018-05-23T08:02:04.679Z,12.47
2018-05-23T08:04:32.268Z,13.37
2018-05-23T08:07:00.208Z,12.67
2018-05-23T08:09:27.762Z,13.43
2018-05-23T08:11:55.363Z,13.20
2018-05-23T08:14:22.938Z,13.30
2018-05-23T08:16:50.504Z,11.63
2018-05-23T08:19:18.086Z,12.43
2018-05-23T08:21:45.639Z,11.93
2018-05-23T08:24:13.188Z,12.77
2018-05-23T08:26:40.792Z,13.33
2018-05-23T08:29:08.346Z,12.77
2018-05-23T08:31:35.998Z,12.30
2018-05-23T08:34:03.927Z,14.03
2018-05-23T08:36:31.555Z,12.17
2018-05-23T08:38:59.093Z,12.43
2018-05-23T08:41:26.771Z,11.73
2018-05-23T08:43:54.333Z,12.57
2018-05-23T08:46:21.892Z,12.03
2018-05-23T08:48:49.573Z,12.20
2018-05-23T08:51:17.124Z,12.70
2018-05-23T08:53:44.672Z,11.30
2018-05-23T08:56:12.352Z,11.83
2018-05-23T08:58:39.900Z,11.73
2018-05-23T09:01:07.461Z,10.93
2018-05-23T09:03:35.149Z,11.03
2018-05-23T09:06:02.696Z,9.57
2018-05-23T09:08:30.248Z,9.80
2018-05-23T09:10:57.997Z,9.00
2018-05-23T09:13:25.566Z,8.47
2018-05-23T09:15:53.113Z,7.83
2018-05-23T09:18:20.806Z,9.10
2018-05-23T09:20:48.350Z,9.03
2018-05-23T09:23:15.904Z,7.37
2018-05-23T09:25:43.653Z,8.20
2018-05-23T09:28:11.207Z,8.27
2018-05-23T09:30:38.757Z,7.13
2018-05-23T09:33:06.487Z,6.37
2018-05-23T09:35:34.050Z,6.60
2018-05-23T09:38:01.592Z,6.97
2018-05-23T09:40:29.172Z,7.20
2018-05-23T09:42:56.729Z,8.77
2018-05-23T09:45:24.280Z,6.50
2018-05-23T09:47:51.870Z,7.70
2018-05-23T09:50:19.432Z,6.97
2018-05-23T09:52:46.979Z,7.30
2018-05-23T09:55:14.683Z,7.23
2018-05-23T09:57:42.243Z,6.37
2018-05-23T10:00:09.835Z,6.90
2018-05-23T10:02:37.419Z,7.33
2018-05-23T10:05:04.972Z,7.23
2018-05-23T10:07:32.530Z,6.33
2018-05-23T10:10:00.146Z,5.77
2018-05-23T10:12:27.686Z,5.57
2018-05-23T10:14:55.964Z,5.73
2018-05-23T10:17:23.884Z,5.60
2018-05-23T10:19:51.436Z,6.30
2018-05-23T10:22:19.001Z,5.93
2018-05-23T10:24:46.587Z,6.27
2018-05-23T10:27:14.146Z,5.83
2018-05-23T10:29:41.697Z,6.50
2018-05-23T10:32:09.278Z,5.60
2018-05-23T10:34:36.837Z,5.63
2018-05-23T10:37:04.394Z,6.03
2018-05-23T10:39:32.084Z,5.97
2018-05-23T10:41:59.670Z,6.57
2018-05-23T10:44:27.245Z,7.10
2018-05-23T10:46:54.996Z,6.40
2018-05-23T10:49:22.549Z,6.67
2018-05-23T10:51:50.098Z,6.03
2018-05-23T10:54:17.663Z,5.97
2018-05-23T10:56:45.215Z,6.23
2018-05-23T10:59:12.764Z,6.07
2018-05-23T11:01:40.366Z,6.57
2018-05-23T11:04:07.920Z,5.57
2018-05-23T11:06:35.522Z,5.70
2018-05-23T11:09:03.238Z,6.47
2018-05-23T11:11:30.754Z,5.80
2018-05-23T11:13:58.320Z,5.63
2018-05-23T11:16:26.087Z,5.80
2018-05-23T11:18:53.640Z,5.67
2018-05-23T11:21:21.235Z,5.50
2018-05-23T11:23:48.811Z,5.03
2018-05-23T11:26:16.357Z,5.60
2018-05-23T11:28:43.908Z,5.83
2018-05-23T11:31:11.507Z,6.63
2018-05-23T11:33:39.054Z,5.53
2018-05-23T11:36:06.614Z,5.50
2018-05-23T11:38:34.296Z,6.10
2018-05-23T11:41:01.858Z,5.63
2018-05-23T11:43:29.399Z,5.60
2018-05-23T11:45:57.088Z,5.50
2018-05-23T11:48:24.652Z,5.53
2018-05-23T11:50:52.209Z,5.67
2018-05-23T11:53:19.794Z,6.33
2018-05-23T11:55:47.339Z,6.03
2018-05-23T11:58:14.888Z,5.87
2018-05-23T12:00:42.497Z,5.50
2018-05-23T12:03:10.066Z,6.10
2018-05-23T12:05:37.612Z,5.10
2018-05-23T12:08:05.205Z,5.80
2018-05-23T12:10:32.802Z,5.47
2018-05-23T12:13:00.355Z,5.33
2018-05-23T12:15:28.061Z,5.43
2018-05-23T12:17:55.622Z,6.10
2018-05-23T12:20:23.196Z,6.10
2018-05-23T12:22:50.795Z,5.50
2018-05-23T12:25:18.373Z,5.47
2018-05-23T12:27:45.930Z,6.13
2018-05-23T12:30:13.519Z,6.27
2018-05-23T12:32:41.073Z,6.03
2018-05-23T12:35:08.616Z,5.53
2018-05-23T12:37:36.208Z,6.00
2018-05-23T12:40:03.791Z,7.23
2018-05-23T12:42:31.332Z,6.03
2018-05-23T12:44:59.059Z,6.20
2018-05-23T12:47:26.609Z,6.63
2018-05-23T12:49:54.171Z,6.73
2018-05-23T12:52:21.769Z,6.17
2018-05-23T12:54:49.325Z,5.97
2018-05-23T12:57:16.875Z,6.60
2018-05-23T12:59:44.458Z,6.10
2018-05-23T13:02:12.008Z,7.00
2018-05-23T13:04:39.741Z,6.30
2018-05-23T13:07:07.279Z,6.33
2018-05-23T13:09:34.834Z,6.40
2018-05-23T13:12:02.531Z,6.03
2018-05-23T13:14:30.077Z,6.20
2018-05-23T13:16:57.621Z,6.70
2018-05-23T13:19:25.319Z,6.40
2018-05-23T13:21:52.882Z,7.00
2018-05-23T13:24:20.434Z,6.80
2018-05-23T13:26:48.122Z,6.97
2018-05-23T13:29:15.668Z,6.60
2018-05-23T13:31:43.219Z,6.43
2018-05-23T13:34:10.902Z,6.57
2018-05-23T13:36:38.449Z,6.50
2018-05-23T13:39:06.027Z,6.37
2018-05-23T13:41:33.622Z,6.60
2018-05-23T13:44:01.171Z,7.17
2018-05-23T13:46:28.776Z,7.00
2018-05-23T13:48:56.383Z,7.40
2018-05-23T13:51:23.920Z,7.10
2018-05-23T13:53:51.473Z,7.47
2018-05-23T13:56:19.326Z,7.73
2018-05-23T13:58:46.878Z,7.87
2018-05-23T14:01:14.425Z,8.70
2018-05-23T14:03:42.014Z,9.63
2018-05-23T14:06:09.563Z,9.00
2018-05-23T14:08:37.121Z,9.27
2018-05-23T14:11:04.860Z,9.37
2018-05-23T14:13:32.404Z,9.60
2018-05-23T14:15:59.967Z,9.97
2018-05-23T14:18:27.557Z,10.17
2018-05-23T14:20:55.212Z,9.53
2018-05-23T14:23:22.725Z,9.83
2018-05-23T14:25:50.487Z,9.80
2018-05-23T14:28:18.048Z,9.57
2018-05-23T14:30:45.608Z,9.90
2018-05-23T14:33:13.346Z,10.20
2018-05-23T14:35:40.896Z,9.23
2018-05-23T14:38:08.476Z,9.87
2018-05-23T14:40:36.088Z,9.37
2018-05-23T14:43:03.635Z,9.40
2018-05-23T14:45:31.185Z,9.63
2018-05-23T14:47:59.120Z,9.40
2018-05-23T14:50:26.678Z,8.63
2018-05-23T14:52:54.234Z,7.57
2018-05-23T14:55:21.988Z,8.20
2018-05-23T14:57:49.543Z,8.77
2018-05-23T15:00:17.092Z,7.80
2018-05-23T15:02:44.680Z,8.03
2018-05-23T15:05:12.241Z,8.00
2018-05-23T15:07:39.792Z,8.70
2018-05-23T15:10:07.531Z,7.70
2018-05-23T15:12:35.077Z,7.40
2018-05-23T15:15:02.625Z,6.67
2018-05-23T15:17:30.322Z,5.90
2018-05-23T15:19:57.982Z,5.47
2018-05-23T15:22:25.466Z,4.20
2018-05-23T15:24:53.199Z,3.20
2018-05-23T15:27:20.863Z,3.10
2018-05-23T15:29:48.358Z,3.10
2018-05-23T15:32:15.950Z,3.63
2018-05-23T15:34:43.492Z,3.57
2018-05-23T15:37:11.064Z,2.77
2018-05-23T15:39:38.643Z,2.90
2018-05-23T15:42:06.216Z,2.87
2018-05-23T15:44:33.764Z,2.73
2018-05-23T15:47:01.452Z,2.40
2018-05-23T15:49:29.029Z,2.40
2018-05-23T15:51:56.586Z,2.53
2018-05-23T15:54:24.497Z,2.23
2018-05-23T15:56:53.287Z,2.57
2018-05-23T15:59:20.841Z,2.40
2018-05-23T16:01:48.469Z,2.80
2018-05-23T16:04:16.058Z,2.60
2018-05-23T16:06:43.609Z,2.60
2018-05-23T16:09:11.297Z,2.50
2018-05-23T16:11:38.852Z,2.90
2018-05-23T16:14:06.412Z,3.33
2018-05-23T16:16:33.989Z,2.90
2018-05-23T16:19:01.564Z,3.07
2018-05-23T16:21:29.123Z,3.10
2018-05-23T16:23:57.035Z,3.17
2018-05-23T16:26:24.604Z,3.47
2018-05-23T16:28:52.640Z,3.23
2018-05-23T16:31:20.386Z,3.53
2018-05-23T16:33:47.956Z,3.60
2018-05-23T16:36:15.492Z,3.53
2018-05-23T16:38:43.183Z,3.33
2018-05-23T16:41:10.773Z,3.47
2018-05-23T16:43:38.315Z,3.37
2018-05-23T16:46:06.078Z,3.57
2018-05-23T16:48:33.631Z,3.00
2018-05-23T16:51:01.178Z,4.50
2018-05-23T16:53:28.761Z,3.93
2018-05-23T16:55:56.338Z,3.10
2018-05-23T16:58:23.911Z,3.60
2018-05-23T17:00:51.501Z,3.33
2018-05-23T17:03:19.049Z,3.10
2018-05-23T17:05:46.962Z,3.47
2018-05-23T17:08:14.544Z,3.80
2018-05-23T17:10:42.105Z,3.53
2018-05-23T17:13:10.000Z,3.97
2018-05-23T17:15:37.575Z,4.30
2018-05-23T17:18:05.152Z,4.63
2018-05-23T17:20:32.765Z,4.53
2018-05-23T17:23:00.338Z,4.63
2018-05-23T17:25:27.887Z,4.93
2018-05-23T17:27:55.612Z,4.87
2018-05-23T17:30:23.173Z,5.27
2018-05-23T17:32:50.718Z,5.60
2018-05-23T17:35:18.332Z,5.10
2018-05-23T17:37:45.902Z,5.40
2018-05-23T17:40:13.529Z,5.87
2018-05-23T17:42:41.196Z,5.27
2018-05-23T17:45:08.793Z,5.17
2018-05-23T17:47:36.357Z,5.90
2018-05-23T17:50:04.083Z,5.43
2018-05-23T17:52:31.648Z,6.40
2018-05-23T17:54:59.260Z,6.33
2018-05-23T17:57:26.945Z,6.67
2018-05-23T17:59:54.496Z,6.30
2018-05-23T18:02:22.058Z,6.10
2018-05-23T18:04:49.669Z,7.00
2018-05-23T18:07:17.279Z,6.60
2018-05-23T18:09:44.838Z,6.60
2018-05-23T18:12:12.444Z,6.63
2018-05-23T18:14:40.021Z,6.73
2018-05-23T18:17:07.585Z,7.27
2018-05-23T18:19:35.178Z,6.93
2018-05-23T18:22:02.723Z,6.90
2018-05-23T18:24:30.271Z,6.70
2018-05-23T18:26:58.047Z,7.43
2018-05-23T18:29:25.692Z,7.13
2018-05-23T18:31:53.214Z,6.50
2018-05-23T18:34:20.798Z,6.67
2018-05-23T18:36:48.353Z,6.77
2018-05-23T18:39:15.923Z,6.57
2018-05-23T18:41:43.533Z,6.33
2018-05-23T18:44:11.097Z,7.23
2018-05-23T18:46:38.667Z,6.93
2018-05-23T18:49:06.243Z,6.33
2018-05-23T18:51:33.805Z,5.90
2018-05-23T18:54:01.370Z,5.80
2018-05-23T18:56:29.092Z,6.53
2018-05-23T18:58:56.645Z,6.20
2018-05-23T19:01:24.209Z,6.33
2018-05-23T19:03:51.975Z,5.90
2018-05-23T19:06:19.527Z,5.57
2018-05-23T19:08:47.064Z,5.60
2018-05-23T19:11:14.641Z,4.93
2018-05-23T19:13:42.208Z,5.60
2018-05-23T19:16:09.761Z,6.40
2018-05-23T19:18:37.367Z,5.60
2018-05-23T19:21:04.967Z,6.30
2018-05-23T19:23:32.541Z,6.23
2018-05-23T19:26:00.159Z,5.77
2018-05-23T19:28:27.708Z,5.80
2018-05-23T19:30:55.266Z,5.73
2018-05-23T19:33:22.913Z,5.43
2018-05-23T19:35:50.476Z,5.70
2018-05-23T19:38:18.014Z,5.73
2018-05-23T19:40:45.589Z,6.20
2018-05-23T19:43:13.161Z,7.03
2018-05-23T19:45:40.715Z,6.60
2018-05-23T19:48:08.348Z,7.80
2018-05-23T19:50:35.896Z,6.73
2018-05-23T19:53:03.456Z,6.53
2018-05-23T19:55:31.044Z,7.23
2018-05-23T19:57:58.631Z,6.77
2018-05-23T20:00:26.229Z,6.53
2018-05-23T20:02:54.306Z,6.60
2018-05-23T20:05:21.867Z,6.67
2018-05-23T20:07:49.410Z,6.23
2018-05-23T20:10:17.037Z,6.80
2018-05-23T20:12:44.602Z,6.80
2018-05-23T20:15:12.144Z,7.00
2018-05-23T20:17:39.896Z,7.73
2018-05-23T20:20:07.469Z,6.57
2018-05-23T20:22:35.023Z,7.10
2018-05-23T20:25:02.848Z,7.40
2018-05-23T20:27:30.412Z,6.70
2018-05-23T20:29:57.974Z,7.50
2018-05-23T20:32:25.747Z,7.27
2018-05-23T20:34:53.361Z,7.30
2018-05-23T20:37:20.945Z,7.10
2018-05-23T20:39:48.525Z,7.77
2018-05-23T20:42:16.084Z,7.60
2018-05-23T20:44:43.652Z,7.77
2018-05-23T20:47:11.239Z,7.47
2018-05-23T20:49:38.845Z,8.50
2018-05-23T20:52:06.429Z,8.33
2018-05-23T20:54:34.178Z,7.67
2018-05-23T20:57:01.740Z,8.20
2018-05-23T20:59:29.285Z,8.27
2018-05-23T21:01:56.868Z,8.00
2018-05-23T21:04:26.343Z,8.90
2018-05-23T21:06:53.901Z,7.97
2018-05-23T21:09:21.607Z,7.53
2018-05-23T21:11:49.168Z,7.73
2018-05-23T21:14:16.725Z,8.00
2018-05-23T21:16:44.461Z,7.53
2018-05-23T21:19:12.021Z,6.90
2018-05-23T21:21:39.586Z,9.10
2018-05-23T21:24:07.181Z,9.17
2018-05-23T21:26:34.747Z,7.67
2018-05-23T21:29:02.292Z,8.67
2018-05-23T21:31:29.893Z,8.37
2018-05-23T21:33:57.447Z,8.60
2018-05-23T21:36:25.000Z,9.17
2018-05-23T21:38:52.744Z,8.23
2018-05-23T21:41:20.292Z,8.20
2018-05-23T21:43:47.857Z,7.80
2018-05-23T21:46:15.456Z,8.40
2018-05-23T21:48:43.076Z,8.03
2018-05-23T21:51:11.140Z,7.93
2018-05-23T21:53:39.063Z,8.30
2018-05-23T21:56:06.617Z,9.23
2018-05-23T21:58:34.164Z,9.37
2018-05-23T22:01:01.723Z,9.20
2018-05-23T22:03:29.275Z,10.10
2018-05-23T22:05:56.966Z,10.47
2018-05-23T22:08:24.556Z,10.97
2018-05-23T22:10:52.121Z,11.13
2018-05-23T22:13:19.693Z,9.93
2018-05-23T22:15:47.241Z,10.67
2018-05-23T22:18:14.814Z,9.90
2018-05-23T22:20:42.418Z,9.77
2018-05-23T22:23:09.977Z,9.60
2018-05-23T22:25:37.523Z,10.27
2018-05-23T22:28:05.261Z,9.97
2018-05-23T22:30:32.883Z,9.90
2018-05-23T22:33:00.388Z,9.33
2018-05-23T22:35:27.964Z,9.50
2018-05-23T22:37:55.510Z,9.07
2018-05-23T22:40:23.088Z,8.90
2018-05-23T22:42:50.693Z,9.67
2018-05-23T22:45:18.253Z,9.10
2018-05-23T22:47:45.801Z,9.60
2018-05-23T22:50:13.378Z,9.13
2018-05-23T22:52:40.932Z,8.87
2018-05-23T22:55:08.509Z,9.50
2018-05-23T22:57:36.089Z,9.07
2018-05-23T23:00:03.651Z,9.77
2018-05-23T23:02:31.204Z,9.30
2018-05-23T23:04:58.792Z,9.33
2018-05-23T23:07:26.360Z,9.83
2018-05-23T23:09:53.913Z,9.33
2018-05-23T23:12:21.477Z,9.03
2018-05-23T23:14:49.016Z,9.03
2018-05-23T23:17:16.568Z,9.10
2018-05-23T23:19:44.326Z,9.50
2018-05-23T23:22:23.615Z,9.73
2018-05-23T23:24:51.328Z,9.97
2018-05-23T23:27:18.877Z,8.83
2018-05-23T23:29:46.483Z,9.80
2018-05-23T23:32:14.093Z,9.73
2018-05-23T23:34:41.637Z,10.40
2018-05-23T23:37:09.187Z,9.43
2018-05-23T23:39:36.772Z,9.77
2018-05-23T23:42:04.318Z,9.23
2018-05-23T23:44:31.873Z,9.60
2018-05-23T23:46:59.779Z,10.07
2018-05-23T23:49:27.342Z,9.20
2018-05-23T23:51:54.875Z,9.30
2018-05-23T23:54:22.596Z,10.03
2018-05-23T23:56:50.135Z,10.33
2018-05-23T23:59:17.679Z,9.53
